sensor_id;sensor_type;location;lat;lon;timestamp;P1;durP1;ratioP1;P2;durP2;ratioP2
15126;SDS011;7664;52.008;4.748;2022-07-01T00:01:57;11.43;;;8.00;;
15126;SDS011;7664;52.008;4.748;2022-07-01T00:04:25;12.30;;;8.35;;
15126;SDS011;7664;52.008;4.748;2022-07-01T00:06:54;16.77;;;9.20;;
15126;SDS011;7664;52.008;4.748;2022-07-01T00:09:25;13.90;;;9.30;;
15126;SDS011;7664;52.008;4.748;2022-07-01T00:11:54;12.63;;;8.93;;
15126;SDS011;7664;52.008;4.748;2022-07-01T00:14:22;11.75;;;9.00;;
15126;SDS011;7664;52.008;4.748;2022-07-01T00:16:52;13.50;;;10.05;;
15126;SDS011;7664;52.008;4.748;2022-07-01T00:19:20;14.27;;;10.23;;
15126;SDS011;7664;52.008;4.748;2022-07-01T00:21:51;14.43;;;9.90;;
15126;SDS011;7664;52.008;4.748;2022-07-01T00:24:19;12.80;;;9.73;;
15126;SDS011;7664;52.008;4.748;2022-07-01T00:26:47;13.63;;;10.27;;
15126;SDS011;7664;52.008;4.748;2022-07-01T00:29:16;14.70;;;10.10;;
15126;SDS011;7664;52.008;4.748;2022-07-01T00:31:50;14.38;;;10.77;;
15126;SDS011;7664;52.008;4.748;2022-07-01T00:34:19;14.77;;;10.73;;
15126;SDS011;7664;52.008;4.748;2022-07-01T00:36:47;12.95;;;9.85;;
15126;SDS011;7664;52.008;4.748;2022-07-01T00:39:16;15.00;;;10.43;;
15126;SDS011;7664;52.008;4.748;2022-07-01T00:41:47;13.82;;;10.07;;
15126;SDS011;7664;52.008;4.748;2022-07-01T00:44:21;15.38;;;10.95;;
15126;SDS011;7664;52.008;4.748;2022-07-01T00:46:50;14.65;;;10.23;;
15126;SDS011;7664;52.008;4.748;2022-07-01T00:49:20;15.10;;;10.25;;
15126;SDS011;7664;52.008;4.748;2022-07-01T00:51:49;13.90;;;9.88;;
15126;SDS011;7664;52.008;4.748;2022-07-01T00:54:20;13.18;;;9.63;;
15126;SDS011;7664;52.008;4.748;2022-07-01T00:56:49;14.32;;;9.90;;
15126;SDS011;7664;52.008;4.748;2022-07-01T00:59:17;12.40;;;9.55;;
15126;SDS011;7664;52.008;4.748;2022-07-01T01:01:45;13.07;;;9.38;;
15126;SDS011;7664;52.008;4.748;2022-07-01T01:04:17;11.73;;;8.55;;
15126;SDS011;7664;52.008;4.748;2022-07-01T01:06:47;12.15;;;9.05;;
15126;SDS011;7664;52.008;4.748;2022-07-01T01:09:15;14.38;;;9.70;;
15126;SDS011;7664;52.008;4.748;2022-07-01T01:11:44;12.25;;;9.38;;
15126;SDS011;7664;52.008;4.748;2022-07-01T01:14:15;13.15;;;9.27;;
15126;SDS011;7664;52.008;4.748;2022-07-01T01:16:44;12.68;;;9.30;;
15126;SDS011;7664;52.008;4.748;2022-07-01T01:19:11;14.23;;;9.15;;
15126;SDS011;7664;52.008;4.748;2022-07-01T01:21:41;11.40;;;9.35;;
15126;SDS011;7664;52.008;4.748;2022-07-01T01:24:10;13.07;;;9.63;;
15126;SDS011;7664;52.008;4.748;2022-07-01T01:26:38;11.35;;;8.27;;
15126;SDS011;7664;52.008;4.748;2022-07-01T01:29:08;12.95;;;9.95;;
15126;SDS011;7664;52.008;4.748;2022-07-01T01:31:39;11.38;;;8.77;;
15126;SDS011;7664;52.008;4.748;2022-07-01T01:34:13;11.52;;;9.50;;
15126;SDS011;7664;52.008;4.748;2022-07-01T01:36:43;13.77;;;9.27;;
15126;SDS011;7664;52.008;4.748;2022-07-01T01:39:11;10.00;;;8.68;;
15126;SDS011;7664;52.008;4.748;2022-07-01T01:41:39;13.18;;;9.73;;
15126;SDS011;7664;52.008;4.748;2022-07-01T01:44:07;14.43;;;10.05;;
15126;SDS011;7664;52.008;4.748;2022-07-01T01:46:35;13.00;;;9.57;;
15126;SDS011;7664;52.008;4.748;2022-07-01T01:49:07;14.15;;;10.07;;
15126;SDS011;7664;52.008;4.748;2022-07-01T01:51:38;15.07;;;8.70;;
15126;SDS011;7664;52.008;4.748;2022-07-01T01:54:13;12.93;;;9.55;;
15126;SDS011;7664;52.008;4.748;2022-07-01T01:56:42;12.93;;;9.10;;
15126;SDS011;7664;52.008;4.748;2022-07-01T01:59:10;11.40;;;9.30;;
15126;SDS011;7664;52.008;4.748;2022-07-01T02:01:40;14.65;;;10.07;;
15126;SDS011;7664;52.008;4.748;2022-07-01T02:04:08;13.00;;;9.50;;
15126;SDS011;7664;52.008;4.748;2022-07-01T02:06:39;16.15;;;9.38;;
15126;SDS011;7664;52.008;4.748;2022-07-01T02:09:09;13.02;;;8.48;;
15126;SDS011;7664;52.008;4.748;2022-07-01T02:11:39;12.23;;;9.05;;
15126;SDS011;7664;52.008;4.748;2022-07-01T02:14:08;11.38;;;8.55;;
15126;SDS011;7664;52.008;4.748;2022-07-01T02:16:36;14.32;;;9.20;;
15126;SDS011;7664;52.008;4.748;2022-07-01T02:19:04;11.07;;;8.40;;
15126;SDS011;7664;52.008;4.748;2022-07-01T02:21:32;14.00;;;8.80;;
15126;SDS011;7664;52.008;4.748;2022-07-01T02:24:00;11.32;;;8.32;;
15126;SDS011;7664;52.008;4.748;2022-07-01T02:26:28;12.13;;;8.50;;
15126;SDS011;7664;52.008;4.748;2022-07-01T02:28:58;12.13;;;8.98;;
15126;SDS011;7664;52.008;4.748;2022-07-01T02:31:26;12.60;;;8.93;;
15126;SDS011;7664;52.008;4.748;2022-07-01T02:33:54;14.45;;;8.98;;
15126;SDS011;7664;52.008;4.748;2022-07-01T02:36:25;13.30;;;8.60;;
15126;SDS011;7664;52.008;4.748;2022-07-01T02:38:53;11.93;;;9.05;;
15126;SDS011;7664;52.008;4.748;2022-07-01T02:41:21;11.77;;;8.10;;
15126;SDS011;7664;52.008;4.748;2022-07-01T02:43:51;12.70;;;8.60;;
15126;SDS011;7664;52.008;4.748;2022-07-01T02:46:21;9.80;;;7.65;;
15126;SDS011;7664;52.008;4.748;2022-07-01T02:48:49;12.93;;;9.70;;
15126;SDS011;7664;52.008;4.748;2022-07-01T02:51:18;11.30;;;8.98;;
15126;SDS011;7664;52.008;4.748;2022-07-01T02:53:46;13.10;;;7.72;;
15126;SDS011;7664;52.008;4.748;2022-07-01T02:56:20;12.50;;;8.50;;
15126;SDS011;7664;52.008;4.748;2022-07-01T02:58:51;12.15;;;9.07;;
15126;SDS011;7664;52.008;4.748;2022-07-01T03:01:23;14.73;;;9.55;;
15126;SDS011;7664;52.008;4.748;2022-07-01T03:03:57;14.57;;;8.98;;
15126;SDS011;7664;52.008;4.748;2022-07-01T03:06:25;13.23;;;9.27;;
15126;SDS011;7664;52.008;4.748;2022-07-01T03:08:54;11.15;;;8.55;;
15126;SDS011;7664;52.008;4.748;2022-07-01T03:11:24;11.75;;;8.93;;
15126;SDS011;7664;52.008;4.748;2022-07-01T03:13:52;12.15;;;9.00;;
15126;SDS011;7664;52.008;4.748;2022-07-01T03:16:20;15.30;;;9.20;;
15126;SDS011;7664;52.008;4.748;2022-07-01T03:18:50;12.02;;;8.68;;
15126;SDS011;7664;52.008;4.748;2022-07-01T03:21:18;13.38;;;8.25;;
15126;SDS011;7664;52.008;4.748;2022-07-01T03:23:48;11.07;;;7.70;;
15126;SDS011;7664;52.008;4.748;2022-07-01T03:26:18;11.52;;;8.25;;
15126;SDS011;7664;52.008;4.748;2022-07-01T03:28:47;9.93;;;7.05;;
15126;SDS011;7664;52.008;4.748;2022-07-01T03:31:15;11.25;;;7.97;;
15126;SDS011;7664;52.008;4.748;2022-07-01T03:33:46;10.88;;;7.68;;
15126;SDS011;7664;52.008;4.748;2022-07-01T03:36:16;8.70;;;7.22;;
15126;SDS011;7664;52.008;4.748;2022-07-01T03:38:44;12.80;;;8.50;;
15126;SDS011;7664;52.008;4.748;2022-07-01T03:41:16;10.07;;;7.72;;
15126;SDS011;7664;52.008;4.748;2022-07-01T03:43:45;14.07;;;10.05;;
15126;SDS011;7664;52.008;4.748;2022-07-01T03:46:22;13.52;;;8.32;;
15126;SDS011;7664;52.008;4.748;2022-07-01T03:48:50;10.82;;;8.07;;
15126;SDS011;7664;52.008;4.748;2022-07-01T03:51:21;11.82;;;7.90;;
15126;SDS011;7664;52.008;4.748;2022-07-01T03:53:49;11.77;;;8.00;;
15126;SDS011;7664;52.008;4.748;2022-07-01T03:56:38;10.48;;;7.53;;
15126;SDS011;7664;52.008;4.748;2022-07-01T03:59:09;11.27;;;7.15;;
15126;SDS011;7664;52.008;4.748;2022-07-01T04:01:38;10.75;;;7.63;;
15126;SDS011;7664;52.008;4.748;2022-07-01T04:04:09;10.57;;;7.72;;
15126;SDS011;7664;52.008;4.748;2022-07-01T04:06:39;10.63;;;7.18;;
15126;SDS011;7664;52.008;4.748;2022-07-01T04:09:07;13.65;;;7.45;;
15126;SDS011;7664;52.008;4.748;2022-07-01T04:11:38;9.75;;;6.82;;
15126;SDS011;7664;52.008;4.748;2022-07-01T04:14:07;10.55;;;6.68;;
15126;SDS011;7664;52.008;4.748;2022-07-01T04:16:35;10.88;;;6.72;;
15126;SDS011;7664;52.008;4.748;2022-07-01T04:19:07;10.73;;;6.50;;
15126;SDS011;7664;52.008;4.748;2022-07-01T04:21:40;18.20;;;6.88;;
15126;SDS011;7664;52.008;4.748;2022-07-01T04:24:28;10.77;;;5.78;;
15126;SDS011;7664;52.008;4.748;2022-07-01T04:27:00;11.13;;;6.18;;
15126;SDS011;7664;52.008;4.748;2022-07-01T04:29:33;9.15;;;5.35;;
15126;SDS011;7664;52.008;4.748;2022-07-01T04:32:03;9.52;;;5.80;;
15126;SDS011;7664;52.008;4.748;2022-07-01T04:34:40;8.32;;;4.70;;
15126;SDS011;7664;52.008;4.748;2022-07-01T04:37:09;6.65;;;5.40;;
15126;SDS011;7664;52.008;4.748;2022-07-01T04:39:38;6.53;;;4.68;;
15126;SDS011;7664;52.008;4.748;2022-07-01T04:42:09;7.18;;;4.25;;
15126;SDS011;7664;52.008;4.748;2022-07-01T04:44:36;6.95;;;4.30;;
15126;SDS011;7664;52.008;4.748;2022-07-01T04:47:09;10.18;;;5.28;;
15126;SDS011;7664;52.008;4.748;2022-07-01T04:49:38;9.18;;;4.88;;
15126;SDS011;7664;52.008;4.748;2022-07-01T04:52:14;7.50;;;4.15;;
15126;SDS011;7664;52.008;4.748;2022-07-01T04:54:45;6.55;;;3.30;;
15126;SDS011;7664;52.008;4.748;2022-07-01T04:57:15;6.72;;;3.83;;
15126;SDS011;7664;52.008;4.748;2022-07-01T04:59:44;8.55;;;4.07;;
15126;SDS011;7664;52.008;4.748;2022-07-01T05:02:14;8.38;;;3.88;;
15126;SDS011;7664;52.008;4.748;2022-07-01T05:04:45;7.75;;;3.80;;
15126;SDS011;7664;52.008;4.748;2022-07-01T05:07:14;6.15;;;3.40;;
15126;SDS011;7664;52.008;4.748;2022-07-01T05:09:55;8.02;;;3.97;;
15126;SDS011;7664;52.008;4.748;2022-07-01T05:12:25;5.72;;;3.60;;
15126;SDS011;7664;52.008;4.748;2022-07-01T05:14:54;6.78;;;3.72;;
15126;SDS011;7664;52.008;4.748;2022-07-01T05:17:22;8.40;;;3.60;;
15126;SDS011;7664;52.008;4.748;2022-07-01T05:20:14;3.42;;;2.88;;
15126;SDS011;7664;52.008;4.748;2022-07-01T05:23:02;6.55;;;3.55;;
15126;SDS011;7664;52.008;4.748;2022-07-01T05:25:32;5.25;;;3.00;;
15126;SDS011;7664;52.008;4.748;2022-07-01T05:28:00;4.10;;;3.00;;
15126;SDS011;7664;52.008;4.748;2022-07-01T05:30:31;4.18;;;3.03;;
15126;SDS011;7664;52.008;4.748;2022-07-01T05:32:59;5.65;;;2.90;;
15126;SDS011;7664;52.008;4.748;2022-07-01T05:35:29;6.55;;;3.55;;
15126;SDS011;7664;52.008;4.748;2022-07-01T05:38:03;7.75;;;3.38;;
15126;SDS011;7664;52.008;4.748;2022-07-01T05:40:32;6.60;;;3.00;;
15126;SDS011;7664;52.008;4.748;2022-07-01T05:43:00;3.80;;;3.03;;
15126;SDS011;7664;52.008;4.748;2022-07-01T05:45:30;4.75;;;2.75;;
15126;SDS011;7664;52.008;4.748;2022-07-01T05:48:02;3.80;;;2.50;;
15126;SDS011;7664;52.008;4.748;2022-07-01T05:50:30;7.60;;;2.30;;
15126;SDS011;7664;52.008;4.748;2022-07-01T05:52:58;3.05;;;2.05;;
15126;SDS011;7664;52.008;4.748;2022-07-01T05:55:32;3.58;;;2.20;;
15126;SDS011;7664;52.008;4.748;2022-07-01T05:58:02;3.42;;;1.75;;
15126;SDS011;7664;52.008;4.748;2022-07-01T06:00:32;5.13;;;2.13;;
15126;SDS011;7664;52.008;4.748;2022-07-01T06:03:00;4.05;;;2.35;;
15126;SDS011;7664;52.008;4.748;2022-07-01T06:05:33;3.95;;;1.92;;
15126;SDS011;7664;52.008;4.748;2022-07-01T06:08:04;4.53;;;2.03;;
15126;SDS011;7664;52.008;4.748;2022-07-01T06:10:36;4.53;;;2.17;;
15126;SDS011;7664;52.008;4.748;2022-07-01T06:13:07;5.22;;;1.73;;
15126;SDS011;7664;52.008;4.748;2022-07-01T06:15:35;2.63;;;1.92;;
15126;SDS011;7664;52.008;4.748;2022-07-01T06:18:07;5.15;;;1.30;;
15126;SDS011;7664;52.008;4.748;2022-07-01T06:20:35;3.80;;;1.65;;
15126;SDS011;7664;52.008;4.748;2022-07-01T06:23:07;4.82;;;1.55;;
15126;SDS011;7664;52.008;4.748;2022-07-01T06:25:37;2.72;;;1.20;;
15126;SDS011;7664;52.008;4.748;2022-07-01T06:28:05;2.97;;;1.27;;
15126;SDS011;7664;52.008;4.748;2022-07-01T06:30:33;5.43;;;1.55;;
15126;SDS011;7664;52.008;4.748;2022-07-01T06:33:16;6.07;;;1.80;;
15126;SDS011;7664;52.008;4.748;2022-07-01T06:35:53;5.22;;;1.67;;
15126;SDS011;7664;52.008;4.748;2022-07-01T06:38:21;4.03;;;1.40;;
15126;SDS011;7664;52.008;4.748;2022-07-01T06:40:51;5.60;;;1.73;;
15126;SDS011;7664;52.008;4.748;2022-07-01T06:43:36;5.20;;;1.90;;
15126;SDS011;7664;52.008;4.748;2022-07-01T06:46:06;5.30;;;1.30;;
15126;SDS011;7664;52.008;4.748;2022-07-01T06:48:37;3.75;;;1.70;;
15126;SDS011;7664;52.008;4.748;2022-07-01T06:51:05;2.85;;;1.13;;
15126;SDS011;7664;52.008;4.748;2022-07-01T06:53:33;4.32;;;1.10;;
15126;SDS011;7664;52.008;4.748;2022-07-01T06:56:03;5.72;;;0.90;;
15126;SDS011;7664;52.008;4.748;2022-07-01T06:58:34;3.58;;;1.20;;
15126;SDS011;7664;52.008;4.748;2022-07-01T07:01:06;4.53;;;1.02;;
15126;SDS011;7664;52.008;4.748;2022-07-01T07:03:33;3.55;;;1.27;;
15126;SDS011;7664;52.008;4.748;2022-07-01T07:06:02;3.40;;;1.45;;
15126;SDS011;7664;52.008;4.748;2022-07-01T07:08:31;2.70;;;0.73;;
15126;SDS011;7664;52.008;4.748;2022-07-01T07:11:04;3.08;;;0.90;;
15126;SDS011;7664;52.008;4.748;2022-07-01T07:13:35;3.00;;;0.85;;
15126;SDS011;7664;52.008;4.748;2022-07-01T07:16:03;5.03;;;1.10;;
15126;SDS011;7664;52.008;4.748;2022-07-01T07:18:32;2.92;;;0.80;;
15126;SDS011;7664;52.008;4.748;2022-07-01T07:21:05;5.90;;;0.95;;
15126;SDS011;7664;52.008;4.748;2022-07-01T07:23:34;5.47;;;1.02;;
15126;SDS011;7664;52.008;4.748;2022-07-01T07:26:02;4.03;;;1.05;;
15126;SDS011;7664;52.008;4.748;2022-07-01T07:28:32;1.75;;;0.60;;
15126;SDS011;7664;52.008;4.748;2022-07-01T07:31:00;2.05;;;0.50;;
15126;SDS011;7664;52.008;4.748;2022-07-01T07:33:28;1.48;;;0.57;;
15126;SDS011;7664;52.008;4.748;2022-07-01T07:35:56;5.07;;;1.13;;
15126;SDS011;7664;52.008;4.748;2022-07-01T07:38:24;3.63;;;1.17;;
15126;SDS011;7664;52.008;4.748;2022-07-01T07:40:52;3.50;;;0.75;;
15126;SDS011;7664;52.008;4.748;2022-07-01T07:43:20;2.22;;;0.68;;
15126;SDS011;7664;52.008;4.748;2022-07-01T07:45:50;3.08;;;0.82;;
15126;SDS011;7664;52.008;4.748;2022-07-01T07:48:18;2.17;;;0.70;;
15126;SDS011;7664;52.008;4.748;2022-07-01T07:50:53;3.90;;;1.02;;
15126;SDS011;7664;52.008;4.748;2022-07-01T07:53:27;3.65;;;0.88;;
15126;SDS011;7664;52.008;4.748;2022-07-01T07:55:56;4.80;;;0.82;;
15126;SDS011;7664;52.008;4.748;2022-07-01T07:58:26;2.50;;;0.57;;
15126;SDS011;7664;52.008;4.748;2022-07-01T08:00:56;2.75;;;1.08;;
15126;SDS011;7664;52.008;4.748;2022-07-01T08:03:24;1.42;;;0.40;;
15126;SDS011;7664;52.008;4.748;2022-07-01T08:05:52;2.28;;;1.00;;
15126;SDS011;7664;52.008;4.748;2022-07-01T08:08:21;1.00;;;0.40;;
15126;SDS011;7664;52.008;4.748;2022-07-01T08:10:54;2.15;;;0.52;;
15126;SDS011;7664;52.008;4.748;2022-07-01T08:13:29;5.85;;;0.68;;
15126;SDS011;7664;52.008;4.748;2022-07-01T08:15:59;1.73;;;0.32;;
15126;SDS011;7664;52.008;4.748;2022-07-01T08:18:35;4.13;;;1.17;;
15126;SDS011;7664;52.008;4.748;2022-07-01T08:21:03;4.43;;;1.63;;
15126;SDS011;7664;52.008;4.748;2022-07-01T08:23:31;2.22;;;0.50;;
15126;SDS011;7664;52.008;4.748;2022-07-01T08:25:58;2.20;;;0.50;;
15126;SDS011;7664;52.008;4.748;2022-07-01T08:28:27;1.83;;;0.22;;
15126;SDS011;7664;52.008;4.748;2022-07-01T08:30:56;2.55;;;0.50;;
15126;SDS011;7664;52.008;4.748;2022-07-01T08:33:29;3.00;;;0.52;;
15126;SDS011;7664;52.008;4.748;2022-07-01T08:35:56;2.85;;;0.60;;
15126;SDS011;7664;52.008;4.748;2022-07-01T08:38:26;2.88;;;0.90;;
15126;SDS011;7664;52.008;4.748;2022-07-01T08:40:55;1.80;;;0.50;;
15126;SDS011;7664;52.008;4.748;2022-07-01T08:43:25;1.30;;;0.35;;
15126;SDS011;7664;52.008;4.748;2022-07-01T08:46:01;5.13;;;0.60;;
15126;SDS011;7664;52.008;4.748;2022-07-01T08:48:44;3.60;;;0.70;;
15126;SDS011;7664;52.008;4.748;2022-07-01T08:51:13;3.08;;;0.75;;
15126;SDS011;7664;52.008;4.748;2022-07-01T08:53:43;4.78;;;0.85;;
15126;SDS011;7664;52.008;4.748;2022-07-01T08:56:14;1.60;;;0.45;;
15126;SDS011;7664;52.008;4.748;2022-07-01T08:59:00;0.50;;;0.30;;
15126;SDS011;7664;52.008;4.748;2022-07-01T09:01:35;6.30;;;0.55;;
15126;SDS011;7664;52.008;4.748;2022-07-01T09:07:00;2.90;;;1.10;;
15126;SDS011;7664;52.008;4.748;2022-07-01T09:09:32;3.47;;;0.47;;
15126;SDS011;7664;52.008;4.748;2022-07-01T09:12:05;1.83;;;0.47;;
15126;SDS011;7664;52.008;4.748;2022-07-01T09:14:34;4.63;;;0.55;;
15126;SDS011;7664;52.008;4.748;2022-07-01T09:17:03;2.47;;;0.50;;
15126;SDS011;7664;52.008;4.748;2022-07-01T09:19:41;2.42;;;0.57;;
15126;SDS011;7664;52.008;4.748;2022-07-01T09:22:16;0.73;;;0.30;;
15126;SDS011;7664;52.008;4.748;2022-07-01T09:24:50;2.80;;;0.55;;
15126;SDS011;7664;52.008;4.748;2022-07-01T09:27:19;0.90;;;0.40;;
15126;SDS011;7664;52.008;4.748;2022-07-01T09:29:50;2.33;;;0.50;;
15126;SDS011;7664;52.008;4.748;2022-07-01T09:32:24;0.95;;;0.28;;
15126;SDS011;7664;52.008;4.748;2022-07-01T09:34:53;1.45;;;0.35;;
15126;SDS011;7664;52.008;4.748;2022-07-01T09:37:24;3.10;;;0.80;;
15126;SDS011;7664;52.008;4.748;2022-07-01T09:39:54;1.27;;;0.30;;
15126;SDS011;7664;52.008;4.748;2022-07-01T09:42:26;2.80;;;0.88;;
15126;SDS011;7664;52.008;4.748;2022-07-01T09:44:55;1.65;;;0.50;;
15126;SDS011;7664;52.008;4.748;2022-07-01T09:47:29;2.08;;;0.52;;
15126;SDS011;7664;52.008;4.748;2022-07-01T09:50:04;1.25;;;0.35;;
15126;SDS011;7664;52.008;4.748;2022-07-01T09:52:35;1.95;;;0.38;;
15126;SDS011;7664;52.008;4.748;2022-07-01T09:55:06;2.85;;;0.38;;
15126;SDS011;7664;52.008;4.748;2022-07-01T09:57:38;3.42;;;0.47;;
15126;SDS011;7664;52.008;4.748;2022-07-01T10:00:13;4.22;;;1.10;;
15126;SDS011;7664;52.008;4.748;2022-07-01T10:02:47;1.52;;;0.52;;
15126;SDS011;7664;52.008;4.748;2022-07-01T10:05:20;4.13;;;0.47;;
15126;SDS011;7664;52.008;4.748;2022-07-01T10:07:55;3.70;;;0.57;;
15126;SDS011;7664;52.008;4.748;2022-07-01T10:10:39;2.22;;;0.68;;
15126;SDS011;7664;52.008;4.748;2022-07-01T10:13:24;3.20;;;0.77;;
15126;SDS011;7664;52.008;4.748;2022-07-01T10:15:58;2.20;;;0.50;;
15126;SDS011;7664;52.008;4.748;2022-07-01T10:18:30;2.60;;;0.50;;
15126;SDS011;7664;52.008;4.748;2022-07-01T10:21:26;1.55;;;0.57;;
15126;SDS011;7664;52.008;4.748;2022-07-01T10:24:10;2.63;;;0.60;;
15126;SDS011;7664;52.008;4.748;2022-07-01T10:26:49;1.35;;;0.32;;
15126;SDS011;7664;52.008;4.748;2022-07-01T10:32:10;0.90;;;0.30;;
15126;SDS011;7664;52.008;4.748;2022-07-01T10:35:19;0.75;;;0.20;;
15126;SDS011;7664;52.008;4.748;2022-07-01T10:37:59;3.38;;;0.85;;
15126;SDS011;7664;52.008;4.748;2022-07-01T10:40:39;2.05;;;0.57;;
15126;SDS011;7664;52.008;4.748;2022-07-01T10:43:16;0.32;;;0.17;;
15126;SDS011;7664;52.008;4.748;2022-07-01T10:45:59;1.02;;;0.10;;
15126;SDS011;7664;52.008;4.748;2022-07-01T10:48:32;1.30;;;0.52;;
15126;SDS011;7664;52.008;4.748;2022-07-01T10:51:04;1.15;;;0.20;;
15126;SDS011;7664;52.008;4.748;2022-07-01T10:53:46;0.25;;;0.10;;
15126;SDS011;7664;52.008;4.748;2022-07-01T10:56:24;1.02;;;0.32;;
15126;SDS011;7664;52.008;4.748;2022-07-01T10:59:16;2.47;;;0.45;;
15126;SDS011;7664;52.008;4.748;2022-07-01T11:01:48;0.95;;;0.52;;
15126;SDS011;7664;52.008;4.748;2022-07-01T11:04:17;1.52;;;0.60;;
15126;SDS011;7664;52.008;4.748;2022-07-01T11:06:45;1.30;;;0.40;;
15126;SDS011;7664;52.008;4.748;2022-07-01T11:09:15;0.95;;;0.40;;
15126;SDS011;7664;52.008;4.748;2022-07-01T11:11:45;2.20;;;0.40;;
15126;SDS011;7664;52.008;4.748;2022-07-01T11:14:17;1.90;;;0.20;;
15126;SDS011;7664;52.008;4.748;2022-07-01T11:16:54;1.00;;;0.35;;
15126;SDS011;7664;52.008;4.748;2022-07-01T11:19:27;1.02;;;0.22;;
15126;SDS011;7664;52.008;4.748;2022-07-01T11:21:58;2.50;;;0.50;;
15126;SDS011;7664;52.008;4.748;2022-07-01T11:24:29;0.20;;;0.20;;
15126;SDS011;7664;52.008;4.748;2022-07-01T11:27:07;1.55;;;0.30;;
15126;SDS011;7664;52.008;4.748;2022-07-01T11:29:41;0.95;;;0.68;;
15126;SDS011;7664;52.008;4.748;2022-07-01T11:32:10;0.57;;;0.30;;
15126;SDS011;7664;52.008;4.748;2022-07-01T11:34:42;1.65;;;0.35;;
15126;SDS011;7664;52.008;4.748;2022-07-01T11:37:14;1.25;;;0.40;;
15126;SDS011;7664;52.008;4.748;2022-07-01T11:40:07;1.90;;;0.68;;
15126;SDS011;7664;52.008;4.748;2022-07-01T11:42:37;0.68;;;0.35;;
15126;SDS011;7664;52.008;4.748;2022-07-01T11:45:20;0.63;;;0.20;;
15126;SDS011;7664;52.008;4.748;2022-07-01T11:47:54;1.17;;;0.38;;
15126;SDS011;7664;52.008;4.748;2022-07-01T11:50:26;2.42;;;0.45;;
15126;SDS011;7664;52.008;4.748;2022-07-01T11:52:57;3.83;;;0.40;;
15126;SDS011;7664;52.008;4.748;2022-07-01T11:55:34;1.00;;;0.25;;
15126;SDS011;7664;52.008;4.748;2022-07-01T11:58:14;1.50;;;0.55;;
15126;SDS011;7664;52.008;4.748;2022-07-01T12:00:43;1.05;;;0.35;;
15126;SDS011;7664;52.008;4.748;2022-07-01T12:03:30;1.83;;;0.40;;
15126;SDS011;7664;52.008;4.748;2022-07-01T12:05:58;2.00;;;0.73;;
15126;SDS011;7664;52.008;4.748;2022-07-01T12:08:29;1.75;;;0.70;;
15126;SDS011;7664;52.008;4.748;2022-07-01T12:10:59;2.20;;;0.40;;
15126;SDS011;7664;52.008;4.748;2022-07-01T12:13:27;1.55;;;0.60;;
15126;SDS011;7664;52.008;4.748;2022-07-01T12:16:04;2.70;;;0.80;;
15126;SDS011;7664;52.008;4.748;2022-07-01T12:18:34;1.27;;;0.43;;
15126;SDS011;7664;52.008;4.748;2022-07-01T12:21:02;3.45;;;0.50;;
15126;SDS011;7664;52.008;4.748;2022-07-01T12:23:33;2.25;;;0.88;;
15126;SDS011;7664;52.008;4.748;2022-07-01T12:26:04;1.85;;;0.65;;
15126;SDS011;7664;52.008;4.748;2022-07-01T12:28:33;0.77;;;0.30;;
15126;SDS011;7664;52.008;4.748;2022-07-01T12:31:07;1.08;;;0.52;;
15126;SDS011;7664;52.008;4.748;2022-07-01T12:33:37;1.73;;;0.38;;
15126;SDS011;7664;52.008;4.748;2022-07-01T12:36:23;1.75;;;0.40;;
15126;SDS011;7664;52.008;4.748;2022-07-01T12:38:59;0.50;;;0.25;;
15126;SDS011;7664;52.008;4.748;2022-07-01T12:41:37;1.38;;;0.40;;
15126;SDS011;7664;52.008;4.748;2022-07-01T12:44:19;1.75;;;0.68;;
15126;SDS011;7664;52.008;4.748;2022-07-01T12:46:48;2.38;;;0.63;;
15126;SDS011;7664;52.008;4.748;2022-07-01T12:49:20;2.42;;;0.52;;
15126;SDS011;7664;52.008;4.748;2022-07-01T12:51:49;2.35;;;0.40;;
15126;SDS011;7664;52.008;4.748;2022-07-01T12:54:30;0.35;;;0.17;;
15126;SDS011;7664;52.008;4.748;2022-07-01T12:57:09;1.55;;;0.47;;
15126;SDS011;7664;52.008;4.748;2022-07-01T12:59:36;1.95;;;0.68;;
15126;SDS011;7664;52.008;4.748;2022-07-01T13:02:09;1.38;;;0.60;;
15126;SDS011;7664;52.008;4.748;2022-07-01T13:04:37;1.00;;;0.65;;
15126;SDS011;7664;52.008;4.748;2022-07-01T13:07:06;2.25;;;0.70;;
15126;SDS011;7664;52.008;4.748;2022-07-01T13:09:34;2.53;;;0.52;;
15126;SDS011;7664;52.008;4.748;2022-07-01T13:12:04;1.10;;;0.50;;
15126;SDS011;7664;52.008;4.748;2022-07-01T13:14:35;0.82;;;0.40;;
15126;SDS011;7664;52.008;4.748;2022-07-01T13:17:04;2.38;;;0.63;;
15126;SDS011;7664;52.008;4.748;2022-07-01T13:19:35;1.30;;;0.30;;
15126;SDS011;7664;52.008;4.748;2022-07-01T13:22:05;2.13;;;0.60;;
15126;SDS011;7664;52.008;4.748;2022-07-01T13:24:33;1.10;;;0.50;;
15126;SDS011;7664;52.008;4.748;2022-07-01T13:27:04;1.75;;;0.30;;
15126;SDS011;7664;52.008;4.748;2022-07-01T13:29:37;1.80;;;0.50;;
15126;SDS011;7664;52.008;4.748;2022-07-01T13:32:13;0.40;;;0.20;;
15126;SDS011;7664;52.008;4.748;2022-07-01T13:34:44;2.03;;;0.95;;
15126;SDS011;7664;52.008;4.748;2022-07-01T13:37:15;1.33;;;0.40;;
15126;SDS011;7664;52.008;4.748;2022-07-01T13:39:44;1.63;;;0.70;;
15126;SDS011;7664;52.008;4.748;2022-07-01T13:42:13;1.50;;;0.20;;
15126;SDS011;7664;52.008;4.748;2022-07-01T13:44:47;2.20;;;0.40;;
15126;SDS011;7664;52.008;4.748;2022-07-01T13:47:19;1.17;;;0.40;;
15126;SDS011;7664;52.008;4.748;2022-07-01T13:49:51;1.98;;;0.35;;
15126;SDS011;7664;52.008;4.748;2022-07-01T13:52:27;2.45;;;0.30;;
15126;SDS011;7664;52.008;4.748;2022-07-01T13:54:56;0.60;;;0.30;;
15126;SDS011;7664;52.008;4.748;2022-07-01T13:57:26;5.80;;;0.35;;
15126;SDS011;7664;52.008;4.748;2022-07-01T14:02:55;1.70;;;0.25;;
15126;SDS011;7664;52.008;4.748;2022-07-01T14:05:25;1.33;;;0.28;;
15126;SDS011;7664;52.008;4.748;2022-07-01T14:07:55;1.75;;;0.30;;
15126;SDS011;7664;52.008;4.748;2022-07-01T14:10:26;1.13;;;0.22;;
15126;SDS011;7664;52.008;4.748;2022-07-01T14:12:57;0.30;;;0.20;;
15126;SDS011;7664;52.008;4.748;2022-07-01T14:15:26;1.05;;;0.57;;
15126;SDS011;7664;52.008;4.748;2022-07-01T14:17:55;2.20;;;0.47;;
15126;SDS011;7664;52.008;4.748;2022-07-01T14:20:23;1.55;;;0.57;;
15126;SDS011;7664;52.008;4.748;2022-07-01T14:22:55;0.93;;;0.20;;
15126;SDS011;7664;52.008;4.748;2022-07-01T14:25:26;0.75;;;0.40;;
15126;SDS011;7664;52.008;4.748;2022-07-01T14:27:55;1.52;;;0.43;;
15126;SDS011;7664;52.008;4.748;2022-07-01T14:30:23;1.80;;;0.30;;
15126;SDS011;7664;52.008;4.748;2022-07-01T14:32:52;1.60;;;0.50;;
15126;SDS011;7664;52.008;4.748;2022-07-01T14:35:20;1.98;;;0.52;;
15126;SDS011;7664;52.008;4.748;2022-07-01T14:37:51;0.55;;;0.30;;
15126;SDS011;7664;52.008;4.748;2022-07-01T14:40:20;1.00;;;0.22;;
15126;SDS011;7664;52.008;4.748;2022-07-01T14:42:50;0.30;;;0.30;;
15126;SDS011;7664;52.008;4.748;2022-07-01T14:45:19;4.15;;;0.95;;
15126;SDS011;7664;52.008;4.748;2022-07-01T14:47:48;4.28;;;0.60;;
15126;SDS011;7664;52.008;4.748;2022-07-01T14:50:20;1.70;;;0.40;;
15126;SDS011;7664;52.008;4.748;2022-07-01T14:52:49;1.73;;;0.55;;
15126;SDS011;7664;52.008;4.748;2022-07-01T14:55:17;3.58;;;0.85;;
15126;SDS011;7664;52.008;4.748;2022-07-01T14:57:45;2.17;;;0.28;;
15126;SDS011;7664;52.008;4.748;2022-07-01T15:00:14;0.95;;;0.38;;
15126;SDS011;7664;52.008;4.748;2022-07-01T15:02:42;1.83;;;0.65;;
15126;SDS011;7664;52.008;4.748;2022-07-01T15:05:11;0.90;;;0.35;;
15126;SDS011;7664;52.008;4.748;2022-07-01T15:07:48;2.10;;;0.40;;
15126;SDS011;7664;52.008;4.748;2022-07-01T15:10:24;1.52;;;0.38;;
15126;SDS011;7664;52.008;4.748;2022-07-01T15:13:08;2.25;;;0.60;;
15126;SDS011;7664;52.008;4.748;2022-07-01T15:18:50;1.98;;;0.60;;
15126;SDS011;7664;52.008;4.748;2022-07-01T15:21:33;0.93;;;0.35;;
15126;SDS011;7664;52.008;4.748;2022-07-01T15:24:03;0.70;;;0.22;;
15126;SDS011;7664;52.008;4.748;2022-07-01T15:26:49;0.98;;;0.30;;
15126;SDS011;7664;52.008;4.748;2022-07-01T15:29:20;0.25;;;0.20;;
15126;SDS011;7664;52.008;4.748;2022-07-01T15:31:50;0.70;;;0.57;;
15126;SDS011;7664;52.008;4.748;2022-07-01T15:34:18;1.08;;;0.70;;
15126;SDS011;7664;52.008;4.748;2022-07-01T15:36:46;0.85;;;0.50;;